sensor_id;sensor_type;location;lat;lon;timestamp;temperature;humidity
25668;DHT22;18003;-33.830;151.202;2023-06-04T00:01:16;17.70;99.90
25668;DHT22;18003;-33.830;151.202;2023-06-04T00:03:46;17.70;99.90
25668;DHT22;18003;-33.830;151.202;2023-06-04T00:06:17;17.70;99.90
25668;DHT22;18003;-33.830;151.202;2023-06-04T00:08:48;17.80;99.90
25668;DHT22;18003;-33.830;151.202;2023-06-04T00:11:18;17.80;99.90
25668;DHT22;18003;-33.830;151.202;2023-06-04T00:13:48;17.80;99.90
25668;DHT22;18003;-33.830;151.202;2023-06-04T00:16:18;17.80;99.90
25668;DHT22;18003;-33.830;151.202;2023-06-04T00:18:48;17.80;99.90
25668;DHT22;18003;-33.830;151.202;2023-06-04T00:21:18;17.80;99.90
25668;DHT22;18003;-33.830;151.202;2023-06-04T00:23:48;17.80;99.90
25668;DHT22;18003;-33.830;151.202;2023-06-04T00:26:18;17.80;99.90
25668;DHT22;18003;-33.830;151.202;2023-06-04T00:28:49;17.80;99.90
25668;DHT22;18003;-33.830;151.202;2023-06-04T00:31:19;17.70;99.90
25668;DHT22;18003;-33.830;151.202;2023-06-04T00:33:49;17.70;99.90
25668;DHT22;18003;-33.830;151.202;2023-06-04T00:36:19;17.80;99.90
25668;DHT22;18003;-33.830;151.202;2023-06-04T00:38:49;17.80;99.90
25668;DHT22;18003;-33.830;151.202;2023-06-04T00:41:19;17.80;99.90
25668;DHT22;18003;-33.830;151.202;2023-06-04T00:43:49;17.80;99.90
25668;DHT22;18003;-33.830;151.202;2023-06-04T00:46:20;17.70;99.90
25668;DHT22;18003;-33.830;151.202;2023-06-04T00:48:51;17.70;99.90
25668;DHT22;18003;-33.830;151.202;2023-06-04T00:51:21;17.80;99.90
25668;DHT22;18003;-33.830;151.202;2023-06-04T00:53:51;17.80;99.90
25668;DHT22;18003;-33.830;151.202;2023-06-04T00:56:21;17.70;99.90
25668;DHT22;18003;-33.830;151.202;2023-06-04T00:58:51;17.70;99.90
25668;DHT22;18003;-33.830;151.202;2023-06-04T01:01:37;17.70;99.90
25668;DHT22;18003;-33.830;151.202;2023-06-04T01:04:06;17.70;99.90
25668;DHT22;18003;-33.830;151.202;2023-06-04T01:06:43;17.70;99.90
25668;DHT22;18003;-33.830;151.202;2023-06-04T01:09:12;17.70;99.90
25668;DHT22;18003;-33.830;151.202;2023-06-04T01:11:41;17.60;99.90
25668;DHT22;18003;-33.830;151.202;2023-06-04T01:14:11;17.60;99.90
25668;DHT22;18003;-33.830;151.202;2023-06-04T01:17:02;17.70;99.90
25668;DHT22;18003;-33.830;151.202;2023-06-04T01:22:56;17.60;99.90
25668;DHT22;18003;-33.830;151.202;2023-06-04T01:25:37;17.60;99.90
25668;DHT22;18003;-33.830;151.202;2023-06-04T01:28:11;17.70;99.90
25668;DHT22;18003;-33.830;151.202;2023-06-04T01:30:42;17.60;99.90
25668;DHT22;18003;-33.830;151.202;2023-06-04T01:33:19;17.50;99.90
25668;DHT22;18003;-33.830;151.202;2023-06-04T01:35:45;17.40;99.90
25668;DHT22;18003;-33.830;151.202;2023-06-04T01:38:15;17.40;99.90
25668;DHT22;18003;-33.830;151.202;2023-06-04T01:40:46;17.30;99.90
25668;DHT22;18003;-33.830;151.202;2023-06-04T01:43:16;17.30;99.90
25668;DHT22;18003;-33.830;151.202;2023-06-04T01:45:46;17.30;99.90
25668;DHT22;18003;-33.830;151.202;2023-06-04T01:48:16;17.30;99.90
25668;DHT22;18003;-33.830;151.202;2023-06-04T01:50:46;17.30;99.90
25668;DHT22;18003;-33.830;151.202;2023-06-04T01:53:16;17.20;99.90
25668;DHT22;18003;-33.830;151.202;2023-06-04T01:55:46;17.20;99.90
25668;DHT22;18003;-33.830;151.202;2023-06-04T01:58:17;17.20;99.90
25668;DHT22;18003;-33.830;151.202;2023-06-04T02:00:48;17.20;99.90
25668;DHT22;18003;-33.830;151.202;2023-06-04T02:03:18;17.20;99.90
25668;DHT22;18003;-33.830;151.202;2023-06-04T02:05:48;17.20;99.90
25668;DHT22;18003;-33.830;151.202;2023-06-04T02:08:19;17.20;99.90
25668;DHT22;18003;-33.830;151.202;2023-06-04T02:10:49;17.20;99.90
25668;DHT22;18003;-33.830;151.202;2023-06-04T02:13:19;17.10;99.90
25668;DHT22;18003;-33.830;151.202;2023-06-04T02:15:50;17.10;99.90
25668;DHT22;18003;-33.830;151.202;2023-06-04T02:18:20;17.10;99.90
25668;DHT22;18003;-33.830;151.202;2023-06-04T02:20:50;17.10;99.90
25668;DHT22;18003;-33.830;151.202;2023-06-04T02:23:21;17.10;99.90
25668;DHT22;18003;-33.830;151.202;2023-06-04T02:25:51;17.10;99.90
25668;DHT22;18003;-33.830;151.202;2023-06-04T02:28:21;17.10;99.90
25668;DHT22;18003;-33.830;151.202;2023-06-04T02:30:51;17.10;99.90
25668;DHT22;18003;-33.830;151.202;2023-06-04T02:33:21;17.10;99.90
25668;DHT22;18003;-33.830;151.202;2023-06-04T02:35:51;17.10;99.90
25668;DHT22;18003;-33.830;151.202;2023-06-04T02:38:21;17.10;99.90
25668;DHT22;18003;-33.830;151.202;2023-06-04T02:40:51;17.10;99.90
25668;DHT22;18003;-33.830;151.202;2023-06-04T02:43:21;17.10;99.90
25668;DHT22;18003;-33.830;151.202;2023-06-04T02:45:51;17.10;99.90
25668;DHT22;18003;-33.830;151.202;2023-06-04T02:48:21;17.10;99.90
25668;DHT22;18003;-33.830;151.202;2023-06-04T02:50:51;17.10;99.90
25668;DHT22;18003;-33.830;151.202;2023-06-04T02:53:21;17.10;99.90
25668;DHT22;18003;-33.830;151.202;2023-06-04T02:55:51;17.10;99.90
25668;DHT22;18003;-33.830;151.202;2023-06-04T02:58:22;17.10;99.90
25668;DHT22;18003;-33.830;151.202;2023-06-04T03:00:53;17.10;99.90
25668;DHT22;18003;-33.830;151.202;2023-06-04T03:03:24;17.10;99.90
25668;DHT22;18003;-33.830;151.202;2023-06-04T03:05:54;17.10;99.90
25668;DHT22;18003;-33.830;151.202;2023-06-04T03:08:24;17.10;99.90
25668;DHT22;18003;-33.830;151.202;2023-06-04T03:10:54;17.10;99.90
25668;DHT22;18003;-33.830;151.202;2023-06-04T03:13:25;17.10;99.90
25668;DHT22;18003;-33.830;151.202;2023-06-04T03:15:55;17.10;99.90
25668;DHT22;18003;-33.830;151.202;2023-06-04T03:18:26;17.10;99.90
25668;DHT22;18003;-33.830;151.202;2023-06-04T03:20:56;17.10;99.90
25668;DHT22;18003;-33.830;151.202;2023-06-04T03:23:27;17.10;99.90
25668;DHT22;18003;-33.830;151.202;2023-06-04T03:25:57;17.10;99.90
25668;DHT22;18003;-33.830;151.202;2023-06-04T03:28:27;17.10;99.90
25668;DHT22;18003;-33.830;151.202;2023-06-04T03:30:57;17.10;99.90
25668;DHT22;18003;-33.830;151.202;2023-06-04T03:33:27;17.10;99.90
25668;DHT22;18003;-33.830;151.202;2023-06-04T03:35:57;17.10;99.90
25668;DHT22;18003;-33.830;151.202;2023-06-04T03:38:27;17.10;99.90
25668;DHT22;18003;-33.830;151.202;2023-06-04T03:40:57;17.10;99.90
25668;DHT22;18003;-33.830;151.202;2023-06-04T03:43:27;17.10;99.90
25668;DHT22;18003;-33.830;151.202;2023-06-04T03:45:57;17.10;99.90
25668;DHT22;18003;-33.830;151.202;2023-06-04T03:48:27;17.10;99.90
25668;DHT22;18003;-33.830;151.202;2023-06-04T03:50:57;17.20;99.90
25668;DHT22;18003;-33.830;151.202;2023-06-04T03:53:27;17.20;99.90
25668;DHT22;18003;-33.830;151.202;2023-06-04T03:55:57;17.20;99.90
25668;DHT22;18003;-33.830;151.202;2023-06-04T03:58:27;17.20;99.90
25668;DHT22;18003;-33.830;151.202;2023-06-04T04:00:57;17.30;99.90
25668;DHT22;18003;-33.830;151.202;2023-06-04T04:03:27;17.30;99.90
25668;DHT22;18003;-33.830;151.202;2023-06-04T04:05:58;17.30;99.90
25668;DHT22;18003;-33.830;151.202;2023-06-04T04:08:28;17.30;99.90
25668;DHT22;18003;-33.830;151.202;2023-06-04T04:10:59;17.30;99.90
25668;DHT22;18003;-33.830;151.202;2023-06-04T04:13:29;17.30;99.90
25668;DHT22;18003;-33.830;151.202;2023-06-04T04:16:00;17.30;99.90
25668;DHT22;18003;-33.830;151.202;2023-06-04T04:18:34;17.30;99.90
25668;DHT22;18003;-33.830;151.202;2023-06-04T04:21:04;17.30;99.90
25668;DHT22;18003;-33.830;151.202;2023-06-04T04:23:34;17.20;99.90
25668;DHT22;18003;-33.830;151.202;2023-06-04T04:26:04;17.20;99.90
25668;DHT22;18003;-33.830;151.202;2023-06-04T04:28:34;17.30;99.90
25668;DHT22;18003;-33.830;151.202;2023-06-04T04:31:04;17.30;99.90
25668;DHT22;18003;-33.830;151.202;2023-06-04T04:33:35;17.30;99.90
25668;DHT22;18003;-33.830;151.202;2023-06-04T04:36:07;17.30;99.90
25668;DHT22;18003;-33.830;151.202;2023-06-04T04:38:38;17.30;99.90
25668;DHT22;18003;-33.830;151.202;2023-06-04T04:41:08;17.30;99.90
25668;DHT22;18003;-33.830;151.202;2023-06-04T04:43:39;17.30;99.90
25668;DHT22;18003;-33.830;151.202;2023-06-04T04:46:09;17.30;99.90
25668;DHT22;18003;-33.830;151.202;2023-06-04T04:48:39;17.20;99.90
25668;DHT22;18003;-33.830;151.202;2023-06-04T04:51:10;17.20;99.90
25668;DHT22;18003;-33.830;151.202;2023-06-04T04:53:40;17.20;99.90
25668;DHT22;18003;-33.830;151.202;2023-06-04T04:56:10;17.20;99.90
25668;DHT22;18003;-33.830;151.202;2023-06-04T04:58:41;17.20;99.90
25668;DHT22;18003;-33.830;151.202;2023-06-04T05:01:11;17.20;99.90
25668;DHT22;18003;-33.830;151.202;2023-06-04T05:03:41;17.10;99.90
25668;DHT22;18003;-33.830;151.202;2023-06-04T05:06:11;17.20;99.90
25668;DHT22;18003;-33.830;151.202;2023-06-04T05:08:41;17.20;99.90
25668;DHT22;18003;-33.830;151.202;2023-06-04T05:11:11;17.20;99.90
25668;DHT22;18003;-33.830;151.202;2023-06-04T05:13:41;17.20;99.90
25668;DHT22;18003;-33.830;151.202;2023-06-04T05:16:11;17.20;99.90
25668;DHT22;18003;-33.830;151.202;2023-06-04T05:18:42;17.20;99.90
25668;DHT22;18003;-33.830;151.202;2023-06-04T05:21:12;17.20;99.90
25668;DHT22;18003;-33.830;151.202;2023-06-04T05:23:43;17.20;99.90
25668;DHT22;18003;-33.830;151.202;2023-06-04T05:26:14;17.20;99.90
25668;DHT22;18003;-33.830;151.202;2023-06-04T05:28:44;17.20;99.90
25668;DHT22;18003;-33.830;151.202;2023-06-04T05:31:14;17.20;99.90
25668;DHT22;18003;-33.830;151.202;2023-06-04T05:33:45;17.20;99.90
25668;DHT22;18003;-33.830;151.202;2023-06-04T05:36:16;17.20;99.90
25668;DHT22;18003;-33.830;151.202;2023-06-04T05:38:46;17.20;99.90
25668;DHT22;18003;-33.830;151.202;2023-06-04T05:41:16;17.20;99.90
25668;DHT22;18003;-33.830;151.202;2023-06-04T05:43:46;17.20;99.90
25668;DHT22;18003;-33.830;151.202;2023-06-04T05:46:16;17.20;99.90
25668;DHT22;18003;-33.830;151.202;2023-06-04T05:48:46;17.20;99.90
25668;DHT22;18003;-33.830;151.202;2023-06-04T05:51:16;17.20;99.90
25668;DHT22;18003;-33.830;151.202;2023-06-04T05:53:46;17.20;99.90
25668;DHT22;18003;-33.830;151.202;2023-06-04T05:56:16;17.20;99.90
25668;DHT22;18003;-33.830;151.202;2023-06-04T05:58:56;17.20;99.90
25668;DHT22;18003;-33.830;151.202;2023-06-04T06:01:18;17.20;99.90
25668;DHT22;18003;-33.830;151.202;2023-06-04T06:03:48;17.20;99.90
25668;DHT22;18003;-33.830;151.202;2023-06-04T06:06:18;17.20;99.90
25668;DHT22;18003;-33.830;151.202;2023-06-04T06:08:49;17.20;99.90
25668;DHT22;18003;-33.830;151.202;2023-06-04T06:11:19;17.10;99.90
25668;DHT22;18003;-33.830;151.202;2023-06-04T06:13:49;17.10;99.90
25668;DHT22;18003;-33.830;151.202;2023-06-04T06:16:20;17.10;99.90
25668;DHT22;18003;-33.830;151.202;2023-06-04T06:18:51;17.10;99.90
25668;DHT22;18003;-33.830;151.202;2023-06-04T06:21:21;17.10;99.90
25668;DHT22;18003;-33.830;151.202;2023-06-04T06:23:51;17.10;99.90
25668;DHT22;18003;-33.830;151.202;2023-06-04T06:26:21;17.20;99.90
25668;DHT22;18003;-33.830;151.202;2023-06-04T06:28:53;17.10;99.90
25668;DHT22;18003;-33.830;151.202;2023-06-04T06:31:24;17.20;99.90
25668;DHT22;18003;-33.830;151.202;2023-06-04T06:33:54;17.20;99.90
25668;DHT22;18003;-33.830;151.202;2023-06-04T06:36:24;17.20;99.90
25668;DHT22;18003;-33.830;151.202;2023-06-04T06:38:54;17.20;99.90
25668;DHT22;18003;-33.830;151.202;2023-06-04T06:41:24;17.20;99.90
25668;DHT22;18003;-33.830;151.202;2023-06-04T06:43:54;17.10;99.90
25668;DHT22;18003;-33.830;151.202;2023-06-04T06:46:24;17.10;99.90
25668;DHT22;18003;-33.830;151.202;2023-06-04T06:48:54;17.10;99.90
25668;DHT22;18003;-33.830;151.202;2023-06-04T06:51:24;17.20;99.90
25668;DHT22;18003;-33.830;151.202;2023-06-04T06:53:54;17.20;99.90
25668;DHT22;18003;-33.830;151.202;2023-06-04T06:56:24;17.20;99.90
25668;DHT22;18003;-33.830;151.202;2023-06-04T06:58:54;17.20;99.90
25668;DHT22;18003;-33.830;151.202;2023-06-04T07:01:24;17.20;99.90
25668;DHT22;18003;-33.830;151.202;2023-06-04T07:03:54;17.20;99.90
25668;DHT22;18003;-33.830;151.202;2023-06-04T07:06:25;17.20;99.90
25668;DHT22;18003;-33.830;151.202;2023-06-04T07:08:55;17.20;99.90
25668;DHT22;18003;-33.830;151.202;2023-06-04T07:11:25;17.10;99.90
25668;DHT22;18003;-33.830;151.202;2023-06-04T07:13:55;17.10;99.90
25668;DHT22;18003;-33.830;151.202;2023-06-04T07:16:25;17.10;99.90
25668;DHT22;18003;-33.830;151.202;2023-06-04T07:18:55;17.10;99.90
25668;DHT22;18003;-33.830;151.202;2023-06-04T07:21:25;17.10;99.90
25668;DHT22;18003;-33.830;151.202;2023-06-04T07:23:57;17.10;99.90
25668;DHT22;18003;-33.830;151.202;2023-06-04T07:26:27;17.10;99.90
25668;DHT22;18003;-33.830;151.202;2023-06-04T07:28:58;17.10;99.90
25668;DHT22;18003;-33.830;151.202;2023-06-04T07:31:28;17.10;99.90
25668;DHT22;18003;-33.830;151.202;2023-06-04T07:33:58;17.10;99.90
25668;DHT22;18003;-33.830;151.202;2023-06-04T07:36:28;17.10;99.90
25668;DHT22;18003;-33.830;151.202;2023-06-04T07:38:59;17.10;99.90
25668;DHT22;18003;-33.830;151.202;2023-06-04T07:41:29;17.10;99.90
25668;DHT22;18003;-33.830;151.202;2023-06-04T07:43:59;17.10;99.90
25668;DHT22;18003;-33.830;151.202;2023-06-04T07:46:30;17.00;99.90
25668;DHT22;18003;-33.830;151.202;2023-06-04T07:49:00;17.00;99.90
25668;DHT22;18003;-33.830;151.202;2023-06-04T07:51:30;17.00;99.90
25668;DHT22;18003;-33.830;151.202;2023-06-04T07:54:00;17.00;99.90
25668;DHT22;18003;-33.830;151.202;2023-06-04T07:56:30;17.00;99.90
25668;DHT22;18003;-33.830;151.202;2023-06-04T07:59:00;17.00;99.90
25668;DHT22;18003;-33.830;151.202;2023-06-04T08:01:30;17.10;99.90
25668;DHT22;18003;-33.830;151.202;2023-06-04T08:04:00;17.00;99.90
25668;DHT22;18003;-33.830;151.202;2023-06-04T08:06:31;17.00;99.90
25668;DHT22;18003;-33.830;151.202;2023-06-04T08:09:01;17.00;99.90
25668;DHT22;18003;-33.830;151.202;2023-06-04T08:11:31;17.00;99.90
25668;DHT22;18003;-33.830;151.202;2023-06-04T08:14:01;17.00;99.90
25668;DHT22;18003;-33.830;151.202;2023-06-04T08:16:32;17.00;99.90
25668;DHT22;18003;-33.830;151.202;2023-06-04T08:19:02;17.10;99.90
25668;DHT22;18003;-33.830;151.202;2023-06-04T08:21:33;17.00;99.90
25668;DHT22;18003;-33.830;151.202;2023-06-04T08:24:03;17.00;99.90
25668;DHT22;18003;-33.830;151.202;2023-06-04T08:26:34;17.00;99.90
25668;DHT22;18003;-33.830;151.202;2023-06-04T08:29:04;17.00;99.90
25668;DHT22;18003;-33.830;151.202;2023-06-04T08:31:34;17.00;99.90
25668;DHT22;18003;-33.830;151.202;2023-06-04T08:34:04;17.00;99.90
25668;DHT22;18003;-33.830;151.202;2023-06-04T08:36:34;17.00;99.90
25668;DHT22;18003;-33.830;151.202;2023-06-04T08:39:05;17.00;99.90
25668;DHT22;18003;-33.830;151.202;2023-06-04T08:41:46;17.00;99.90
25668;DHT22;18003;-33.830;151.202;2023-06-04T08:44:17;17.00;99.90
25668;DHT22;18003;-33.830;151.202;2023-06-04T08:46:51;17.00;99.90
25668;DHT22;18003;-33.830;151.202;2023-06-04T08:49:20;17.00;99.90
25668;DHT22;18003;-33.830;151.202;2023-06-04T08:51:50;17.00;99.90
25668;DHT22;18003;-33.830;151.202;2023-06-04T08:54:21;17.00;99.90
25668;DHT22;18003;-33.830;151.202;2023-06-04T08:56:51;17.00;99.90
25668;DHT22;18003;-33.830;151.202;2023-06-04T08:59:21;16.90;99.90
25668;DHT22;18003;-33.830;151.202;2023-06-04T09:01:53;17.00;99.90
25668;DHT22;18003;-33.830;151.202;2023-06-04T09:04:23;16.90;99.90
25668;DHT22;18003;-33.830;151.202;2023-06-04T09:06:54;16.90;99.90
25668;DHT22;18003;-33.830;151.202;2023-06-04T09:09:24;16.90;99.90
25668;DHT22;18003;-33.830;151.202;2023-06-04T09:11:56;16.90;99.90
25668;DHT22;18003;-33.830;151.202;2023-06-04T09:14:27;17.00;99.90
25668;DHT22;18003;-33.830;151.202;2023-06-04T09:16:57;16.90;99.90
25668;DHT22;18003;-33.830;151.202;2023-06-04T09:19:27;16.90;99.90
25668;DHT22;18003;-33.830;151.202;2023-06-04T09:21:59;16.90;99.90
25668;DHT22;18003;-33.830;151.202;2023-06-04T09:24:45;16.90;99.90
25668;DHT22;18003;-33.830;151.202;2023-06-04T09:27:17;16.90;99.90
25668;DHT22;18003;-33.830;151.202;2023-06-04T09:29:52;16.90;99.90
25668;DHT22;18003;-33.830;151.202;2023-06-04T09:32:29;17.00;99.90
25668;DHT22;18003;-33.830;151.202;2023-06-04T09:35:15;16.90;99.90
25668;DHT22;18003;-33.830;151.202;2023-06-04T09:37:58;16.90;99.90
25668;DHT22;18003;-33.830;151.202;2023-06-04T09:40:24;16.90;99.90
25668;DHT22;18003;-33.830;151.202;2023-06-04T09:42:54;16.90;99.90
25668;DHT22;18003;-33.830;151.202;2023-06-04T09:45:34;16.90;99.90
25668;DHT22;18003;-33.830;151.202;2023-06-04T09:48:06;17.10;99.90
25668;DHT22;18003;-33.830;151.202;2023-06-04T09:50:38;17.30;99.90
25668;DHT22;18003;-33.830;151.202;2023-06-04T09:53:19;17.10;99.90
25668;DHT22;18003;-33.830;151.202;2023-06-04T09:55:58;17.00;99.90
25668;DHT22;18003;-33.830;151.202;2023-06-04T09:58:29;17.00;99.90
25668;DHT22;18003;-33.830;151.202;2023-06-04T10:01:00;17.00;99.90
25668;DHT22;18003;-33.830;151.202;2023-06-04T10:03:35;16.90;99.90
25668;DHT22;18003;-33.830;151.202;2023-06-04T10:06:06;16.90;99.90
25668;DHT22;18003;-33.830;151.202;2023-06-04T10:08:37;16.80;99.90
25668;DHT22;18003;-33.830;151.202;2023-06-04T10:11:08;16.70;99.90
25668;DHT22;18003;-33.830;151.202;2023-06-04T10:13:51;16.50;99.90
25668;DHT22;18003;-33.830;151.202;2023-06-04T10:16:19;16.40;99.90
25668;DHT22;18003;-33.830;151.202;2023-06-04T10:18:51;16.30;99.90
25668;DHT22;18003;-33.830;151.202;2023-06-04T10:21:23;16.30;99.90
25668;DHT22;18003;-33.830;151.202;2023-06-04T10:23:52;16.20;99.90
25668;DHT22;18003;-33.830;151.202;2023-06-04T10:26:23;16.20;99.90
25668;DHT22;18003;-33.830;151.202;2023-06-04T10:28:54;16.20;99.90
25668;DHT22;18003;-33.830;151.202;2023-06-04T10:31:25;16.10;99.90
25668;DHT22;18003;-33.830;151.202;2023-06-04T10:33:56;16.10;99.90
25668;DHT22;18003;-33.830;151.202;2023-06-04T10:36:26;16.00;99.90
25668;DHT22;18003;-33.830;151.202;2023-06-04T10:38:56;16.00;99.90
25668;DHT22;18003;-33.830;151.202;2023-06-04T10:41:26;16.00;99.90
25668;DHT22;18003;-33.830;151.202;2023-06-04T10:44:00;16.00;99.90
25668;DHT22;18003;-33.830;151.202;2023-06-04T10:46:36;16.10;99.90
25668;DHT22;18003;-33.830;151.202;2023-06-04T10:48:57;16.10;99.90
25668;DHT22;18003;-33.830;151.202;2023-06-04T10:51:31;16.20;99.90
25668;DHT22;18003;-33.830;151.202;2023-06-04T10:54:02;16.30;99.90
25668;DHT22;18003;-33.830;151.202;2023-06-04T10:56:32;16.30;99.90
25668;DHT22;18003;-33.830;151.202;2023-06-04T10:59:14;16.30;99.90
25668;DHT22;18003;-33.830;151.202;2023-06-04T11:01:44;16.30;99.90
25668;DHT22;18003;-33.830;151.202;2023-06-04T11:04:24;16.20;99.90
25668;DHT22;18003;-33.830;151.202;2023-06-04T11:07:07;16.00;99.90
25668;DHT22;18003;-33.830;151.202;2023-06-04T11:09:38;16.00;99.90
25668;DHT22;18003;-33.830;151.202;2023-06-04T11:12:08;15.90;99.90
25668;DHT22;18003;-33.830;151.202;2023-06-04T11:14:38;15.90;99.90
25668;DHT22;18003;-33.830;151.202;2023-06-04T11:17:15;15.80;99.90
25668;DHT22;18003;-33.830;151.202;2023-06-04T11:19:45;15.80;99.90
25668;DHT22;18003;-33.830;151.202;2023-06-04T11:22:15;15.80;99.90
25668;DHT22;18003;-33.830;151.202;2023-06-04T11:24:45;15.80;99.90
25668;DHT22;18003;-33.830;151.202;2023-06-04T11:27:15;15.80;99.90
25668;DHT22;18003;-33.830;151.202;2023-06-04T11:29:52;15.70;99.90
25668;DHT22;18003;-33.830;151.202;2023-06-04T11:32:24;15.70;99.90
25668;DHT22;18003;-33.830;151.202;2023-06-04T11:35:04;15.70;99.90
25668;DHT22;18003;-33.830;151.202;2023-06-04T11:37:40;15.80;99.90
25668;DHT22;18003;-33.830;151.202;2023-06-04T11:40:19;15.80;99.90
25668;DHT22;18003;-33.830;151.202;2023-06-04T11:42:49;15.90;99.90
25668;DHT22;18003;-33.830;151.202;2023-06-04T11:45:20;16.00;99.90
25668;DHT22;18003;-33.830;151.202;2023-06-04T11:47:57;16.20;99.90
25668;DHT22;18003;-33.830;151.202;2023-06-04T11:50:30;16.40;99.90
25668;DHT22;18003;-33.830;151.202;2023-06-04T11:53:00;16.60;99.90
25668;DHT22;18003;-33.830;151.202;2023-06-04T11:55:31;16.70;99.90
25668;DHT22;18003;-33.830;151.202;2023-06-04T11:58:01;16.80;99.90
25668;DHT22;18003;-33.830;151.202;2023-06-04T12:00:32;16.80;99.90
25668;DHT22;18003;-33.830;151.202;2023-06-04T12:03:02;16.90;99.90
25668;DHT22;18003;-33.830;151.202;2023-06-04T12:05:33;16.90;99.90
25668;DHT22;18003;-33.830;151.202;2023-06-04T12:08:07;17.00;99.90
25668;DHT22;18003;-33.830;151.202;2023-06-04T12:10:41;17.00;99.90
25668;DHT22;18003;-33.830;151.202;2023-06-04T12:13:11;17.00;99.90
25668;DHT22;18003;-33.830;151.202;2023-06-04T12:15:41;17.00;99.90
25668;DHT22;18003;-33.830;151.202;2023-06-04T12:18:11;17.00;99.90
25668;DHT22;18003;-33.830;151.202;2023-06-04T12:20:41;17.00;99.90
25668;DHT22;18003;-33.830;151.202;2023-06-04T12:23:19;17.00;99.90
25668;DHT22;18003;-33.830;151.202;2023-06-04T12:25:41;17.00;99.90
25668;DHT22;18003;-33.830;151.202;2023-06-04T12:28:21;16.80;99.90
25668;DHT22;18003;-33.830;151.202;2023-06-04T12:30:44;16.60;99.90
25668;DHT22;18003;-33.830;151.202;2023-06-04T12:33:14;16.50;99.90
25668;DHT22;18003;-33.830;151.202;2023-06-04T12:35:44;16.40;99.90
25668;DHT22;18003;-33.830;151.202;2023-06-04T12:38:14;16.40;99.90
25668;DHT22;18003;-33.830;151.202;2023-06-04T12:40:44;16.30;99.90
25668;DHT22;18003;-33.830;151.202;2023-06-04T12:43:14;16.20;99.90
25668;DHT22;18003;-33.830;151.202;2023-06-04T12:45:45;16.20;99.90
25668;DHT22;18003;-33.830;151.202;2023-06-04T12:48:15;16.00;99.90
25668;DHT22;18003;-33.830;151.202;2023-06-04T12:50:45;15.80;99.90
25668;DHT22;18003;-33.830;151.202;2023-06-04T12:53:15;15.60;99.90
25668;DHT22;18003;-33.830;151.202;2023-06-04T12:55:45;15.50;99.90
25668;DHT22;18003;-33.830;151.202;2023-06-04T12:58:15;15.50;99.90
25668;DHT22;18003;-33.830;151.202;2023-06-04T13:00:45;15.50;99.90
25668;DHT22;18003;-33.830;151.202;2023-06-04T13:03:15;15.80;99.90
25668;DHT22;18003;-33.830;151.202;2023-06-04T13:05:45;16.10;99.90
25668;DHT22;18003;-33.830;151.202;2023-06-04T13:08:15;16.30;99.90
25668;DHT22;18003;-33.830;151.202;2023-06-04T13:10:45;16.40;99.90
25668;DHT22;18003;-33.830;151.202;2023-06-04T13:13:15;16.50;99.90
25668;DHT22;18003;-33.830;151.202;2023-06-04T13:15:45;16.60;99.90
25668;DHT22;18003;-33.830;151.202;2023-06-04T13:18:15;16.70;99.90
25668;DHT22;18003;-33.830;151.202;2023-06-04T13:20:45;16.70;99.90
25668;DHT22;18003;-33.830;151.202;2023-06-04T13:23:16;16.70;99.90
25668;DHT22;18003;-33.830;151.202;2023-06-04T13:25:46;16.80;99.90
25668;DHT22;18003;-33.830;151.202;2023-06-04T13:28:16;16.80;99.90
25668;DHT22;18003;-33.830;151.202;2023-06-04T13:30:46;16.80;99.90
25668;DHT22;18003;-33.830;151.202;2023-06-04T13:33:17;16.80;99.90
25668;DHT22;18003;-33.830;151.202;2023-06-04T13:35:48;16.80;99.90
25668;DHT22;18003;-33.830;151.202;2023-06-04T13:38:18;16.80;99.90
25668;DHT22;18003;-33.830;151.202;2023-06-04T13:40:48;16.90;99.90
25668;DHT22;18003;-33.830;151.202;2023-06-04T13:43:18;16.90;99.90
25668;DHT22;18003;-33.830;151.202;2023-06-04T13:45:49;16.90;99.90
25668;DHT22;18003;-33.830;151.202;2023-06-04T13:48:18;16.90;99.90
25668;DHT22;18003;-33.830;151.202;2023-06-04T13:50:48;16.90;99.90
25668;DHT22;18003;-33.830;151.202;2023-06-04T13:53:18;16.90;99.90
25668;DHT22;18003;-33.830;151.202;2023-06-04T13:55:48;16.90;99.90
25668;DHT22;18003;-33.830;151.202;2023-06-04T13:58:19;16.90;99.90
25668;DHT22;18003;-33.830;151.202;2023-06-04T14:00:50;16.90;99.90
25668;DHT22;18003;-33.830;151.202;2023-06-04T14:03:20;16.90;99.90
25668;DHT22;18003;-33.830;151.202;2023-06-04T14:05:50;16.90;99.90
25668;DHT22;18003;-33.830;151.202;2023-06-04T14:08:19;16.90;99.90
25668;DHT22;18003;-33.830;151.202;2023-06-04T14:10:49;16.90;99.90
25668;DHT22;18003;-33.830;151.202;2023-06-04T14:13:20;16.90;99.90
25668;DHT22;18003;-33.830;151.202;2023-06-04T14:15:50;16.90;99.90
25668;DHT22;18003;-33.830;151.202;2023-06-04T14:18:20;16.90;99.90
25668;DHT22;18003;-33.830;151.202;2023-06-04T14:20:50;16.90;99.90
25668;DHT22;18003;-33.830;151.202;2023-06-04T14:23:20;16.90;99.90
25668;DHT22;18003;-33.830;151.202;2023-06-04T14:25:50;16.90;99.90
25668;DHT22;18003;-33.830;151.202;2023-06-04T14:28:20;16.90;99.90
25668;DHT22;18003;-33.830;151.202;2023-06-04T14:30:50;16.90;99.90
25668;DHT22;18003;-33.830;151.202;2023-06-04T14:33:20;16.90;99.90
25668;DHT22;18003;-33.830;151.202;2023-06-04T14:35:51;16.90;99.90
25668;DHT22;18003;-33.830;151.202;2023-06-04T14:38:21;16.90;99.90
25668;DHT22;18003;-33.830;151.202;2023-06-04T14:40:51;16.90;99.90
25668;DHT22;18003;-33.830;151.202;2023-06-04T14:43:25;16.80;99.90
25668;DHT22;18003;-33.830;151.202;2023-06-04T14:45:55;16.80;99.90
25668;DHT22;18003;-33.830;151.202;2023-06-04T14:48:25;16.90;99.90
25668;DHT22;18003;-33.830;151.202;2023-06-04T14:50:55;16.80;99.90
25668;DHT22;18003;-33.830;151.202;2023-06-04T14:53:25;16.80;99.90
25668;DHT22;18003;-33.830;151.202;2023-06-04T14:55:55;16.80;99.90
25668;DHT22;18003;-33.830;151.202;2023-06-04T14:58:25;16.80;99.90
25668;DHT22;18003;-33.830;151.202;2023-06-04T15:00:55;16.80;99.90
25668;DHT22;18003;-33.830;151.202;2023-06-04T15:03:26;16.80;99.90
25668;DHT22;18003;-33.830;151.202;2023-06-04T15:05:57;16.80;99.90
25668;DHT22;18003;-33.830;151.202;2023-06-04T15:08:27;16.80;99.90
25668;DHT22;18003;-33.830;151.202;2023-06-04T15:10:57;16.80;99.90
25668;DHT22;18003;-33.830;151.202;2023-06-04T15:13:27;16.80;99.90